METAR Data
IDs: Format: Raw Decoded Include TAF

Data at: 1020 UTC 26 Sep 2018

KSLK 260951Z AUTO 21011KT 10SM OVC015 18/18 A2987 RMK AO2 LTG DSNT W SLP111 T01830178
KSLK 260930Z AUTO 22010KT 10SM BKN017 BKN035 OVC055 18/17 A2988 RMK AO2 T01830172
KSLK 260851Z AUTO 22012KT 10SM FEW013 SCT030 OVC049 17/17 A2989 RMK AO2 SLP119 60002 T01720172 58026
KSLK 260839Z AUTO 23011G17KT 10SM FEW013 BKN030 OVC047 18/17 A2990 RMK AO2 T01780172
KSLK 260812Z AUTO 22009KT 10SM FEW008 SCT014 BKN029 17/17 A2990 RMK AO2 T01670167
KSLK 260802Z AUTO 22008KT 10SM FEW007 BKN012 BKN027 17/17 A2990 RMK AO2 PRESFR T01670167
KSLK 260751Z AUTO 22009KT 10SM OVC012 17/17 A2992 RMK AO2 RAB19E35 SLP129 P0002 T01670167
KSLK 260733Z AUTO 21010KT 10SM -RA OVC013 16/16 A2994 RMK AO2 RAB19 P0002 T01610161
KSLK 260721Z AUTO 22009KT 8SM -RA FEW009 OVC015 16/16 A2995 RMK AO2 RAB19 P0001 T01610161
KSLK 260651Z AUTO 21012KT 10SM OVC009 16/16 A2996 RMK AO2 SLP144 T01610161
KSLK 260641Z AUTO 22012G20KT 10SM OVC009 16/16 A2997 RMK AO2 LTG DSNT SW T01610161
KSLK 260551Z AUTO 22011KT 10SM OVC012 17/16 A2997 RMK AO2 SLP149 T01670161 10178 20139 56020
KSLK 260501Z AUTO 21007KT 10SM OVC014 17/16 A2998 RMK AO2 T01720161
KSLK 260451Z AUTO 23003KT 10SM OVC015 16/15 A2999 RMK AO2 SLP153 T01560150 401560089
KSLK 260351Z AUTO 24005KT 10SM OVC017 16/15 A3001 RMK AO2 SLP162 T01560150
KSLK 260315Z AUTO 27003KT 10SM BKN016 OVC100 15/14 A3003 RMK AO2 T01500144
KSLK 260251Z AUTO 23005KT 10SM FEW016 FEW036 BKN100 15/14 A3003 RMK AO2 SLP172 T01500144 58011
KSLK 260214Z AUTO 25005KT 10SM SCT017 BKN120 15/14 A3005 RMK AO2 T01500144
KSLK 260151Z AUTO 27004KT 10SM BKN018 15/14 A3006 RMK AO2 SLP180 T01500139
KSLK 260108Z AUTO 00000KT 10SM SCT017 14/14 A3006 RMK AO2 T01440139
KSLK 260051Z AUTO 25003KT 10SM BKN017 14/14 A3007 RMK AO2 SLP184 T01440139
KSLK 252351Z AUTO 21003KT 10SM OVC019 14/14 A3009 RMK AO2 SLP190 60000 T01440139 10156 20133 56016
KSLK 252251Z AUTO 19005KT 10SM OVC021 14/13 A3009 RMK AO2 SLP192 T01440128
KSLK 252151Z AUTO 16006KT 10SM OVC024 15/13 A3011 RMK AO2 SLP200 T01500128
KSLK 252051Z AUTO 00000KT 10SM OVC025 14/12 A3014 RMK AO2 SLP207 60000 T01440122 56019
KSLK 251951Z AUTO 15003KT 10SM BKN025 OVC029 14/11 A3016 RMK AO2 SLP215 T01390111
KSLK 251851Z AUTO 16010G17KT 10SM BKN024 OVC029 13/12 A3017 RMK AO2 RAB26E51 SLP220 P0000 T01330117
KSLK 251828Z AUTO 17013KT 10SM -RA BKN028 OVC036 13/11 A3018 RMK AO2 RAB26 P0000 T01330111
KSLK 251751Z AUTO 18008G15KT 10SM SCT027 OVC039 13/11 A3020 RMK AO2 RAB26E35 SLP228 P0000 60019 T01330111 10133 20094 58026
KSLK 251651Z AUTO 18013G20KT 10SM FEW026 OVC045 12/11 A3022 RMK AO2 RAE42 SLP240 P0001 T01220106
KSLK 251551Z AUTO 19006KT 10SM -RA FEW022 OVC045 11/10 A3025 RMK AO2 SLP253 P0002 T01110100
KSLK 251451Z AUTO 17005KT 10SM -RA BKN043 BKN060 OVC095 11/10 A3028 RMK AO2 SLP261 P0007 60016 T01060100 56009
KSLK 251449Z AUTO 19005KT 10SM -RA SCT043 BKN055 OVC095 11/10 A3028 RMK AO2 P0007
KSLK 251442Z AUTO 17009KT 2 1/2SM -RA BR SCT046 BKN055 OVC095 11/10 A3027 RMK AO2 P0007 T01060100
KSLK 251351Z AUTO 15011G18KT 4SM RA BR FEW019 BKN075 OVC095 10/09 A3030 RMK AO2 SLP268 P0004 T01000089
KSLK 251251Z AUTO 16009KT 8SM -RA OVC100 10/09 A3031 RMK AO2 SLP269 P0005 T01000089
KSLK 251151Z AUTO 18006KT 4SM -RA BR FEW050 SCT075 OVC090 10/08 A3032 RMK AO2 RAB1059 SLP274 P0006 60006 70006 T01000078 10106 20094 56010
KSLK 251051Z AUTO 16010G17KT 10SM BKN038 BKN055 OVC100 11/06 A3033 RMK AO2 SLP273 T01060061
KSLK 250951Z AUTO 16006KT 10SM BKN049 OVC060 10/05 A3035 RMK AO2 SLP279 T01000050
KSLK 250851Z AUTO 19009KT 10SM BKN055 10/05 A3036 RMK AO2 SLP281 T01000050 56015
KSLK 250751Z AUTO 19006KT 10SM CLR 09/05 A3036 RMK AO2 SLP282 T00940050
KSLK 250651Z AUTO VRB05KT 10SM CLR 09/05 A3038 RMK AO2 SLP288 T00940050
KSLK 250551Z AUTO 14007KT 10SM CLR 10/06 A3040 RMK AO2 SLP298 T01000056 10111 20044 58014
KSLK 250451Z AUTO 19006KT 10SM CLR 08/06 A3042 RMK AO2 SLP305 T00830056 401720006
KSLK 250351Z AUTO 00000KT 10SM CLR 06/06 A3044 RMK AO2 SLP314 T00560056
KSLK 250251Z AUTO 00000KT 10SM CLR 06/06 A3045 RMK AO2 SLP319 T00610056 58000
KSLK 250151Z AUTO 00000KT 10SM CLR 07/06 A3045 RMK AO2 SLP321 T00720061
KSLK 250051Z AUTO 00000KT 10SM CLR 08/07 A3045 RMK AO2 SLP322 T00830067
KSLK 242351Z AUTO 16005KT 10SM CLR 11/07 A3045 RMK AO2 SLP321 T01110072 10172 20111 51006
KSLK 242251Z AUTO 17007KT 10SM CLR 13/07 A3044 RMK AO2 SLP319 T01280072